createdAt,value
2018-04-17T00:00:45.472Z,8.29
2018-04-17T00:01:51.830Z,8.37
2018-04-17T00:02:57.292Z,8.31
2018-04-17T00:04:05.894Z,8.35
2018-04-17T00:05:12.301Z,8.31
2018-04-17T00:06:17.784Z,8.24
2018-04-17T00:07:23.570Z,8.15
2018-04-17T00:08:28.432Z,8.12
2018-04-17T00:09:32.549Z,8.09
2018-04-17T00:10:38.459Z,8.04
2018-04-17T00:11:43.238Z,8.17
2018-04-17T00:12:47.991Z,8.17
2018-04-17T00:13:52.692Z,8.07
2018-04-17T00:14:57.412Z,8.07
2018-04-17T00:16:02.684Z,8.12
2018-04-17T00:17:07.716Z,8.12
2018-04-17T00:18:14.123Z,8.15
2018-04-17T00:19:20.822Z,8.43
2018-04-17T00:20:27.071Z,8.68
2018-04-17T00:21:31.979Z,8.66
2018-04-17T00:22:36.842Z,8.57
2018-04-17T00:23:41.995Z,8.43
2018-04-17T00:24:48.332Z,8.25
2018-04-17T00:25:53.888Z,8.08
2018-04-17T00:26:58.653Z,7.94
2018-04-17T00:28:02.860Z,7.89
2018-04-17T00:29:07.330Z,7.91
2018-04-17T00:30:14.157Z,7.90
2018-04-17T00:31:18.901Z,7.91
2018-04-17T00:32:23.016Z,7.96
2018-04-17T00:33:28.403Z,7.97
2018-04-17T00:34:33.011Z,8.05
2018-04-17T00:35:39.027Z,8.25
2018-04-17T00:36:44.775Z,8.36
2018-04-17T00:37:51.883Z,8.25
2018-04-17T00:38:57.386Z,8.05
2018-04-17T00:40:02.349Z,7.96
2018-04-17T00:41:07.727Z,7.89
2018-04-17T00:42:12.912Z,7.80
2018-04-17T00:43:19.198Z,7.73
2018-04-17T00:44:25.001Z,7.64
2018-04-17T00:45:29.491Z,7.56
2018-04-17T00:46:34.629Z,7.48
2018-04-17T00:47:40.649Z,7.45
2018-04-17T00:48:45.838Z,7.43
2018-04-17T00:49:51.067Z,7.59
2018-04-17T00:50:57.207Z,7.72
2018-04-17T00:52:03.166Z,7.71
2018-04-17T00:53:16.981Z,7.66
2018-04-17T00:54:23.865Z,7.67
2018-04-17T00:55:30.496Z,7.68
2018-04-17T00:56:35.587Z,7.65
2018-04-17T00:57:40.359Z,7.56
2018-04-17T00:58:45.638Z,7.45
2018-04-17T00:59:50.371Z,7.32
2018-04-17T01:00:54.973Z,7.25
2018-04-17T01:01:59.119Z,7.20
2018-04-17T01:03:03.817Z,7.18
2018-04-17T01:04:08.547Z,7.14
2018-04-17T01:05:13.923Z,7.11
2018-04-17T01:06:18.774Z,7.08
2018-04-17T01:07:26.928Z,7.07
2018-04-17T01:08:32.331Z,7.05
2018-04-17T01:09:37.215Z,7.02
2018-04-17T01:10:41.315Z,7.12
2018-04-17T01:11:48.421Z,7.21
2018-04-17T01:12:53.156Z,7.16
2018-04-17T01:14:01.370Z,7.08
2018-04-17T01:15:08.175Z,7.07
2018-04-17T01:16:15.382Z,7.12
2018-04-17T01:17:19.937Z,7.09
2018-04-17T01:18:25.362Z,7.03
2018-04-17T01:19:30.161Z,7.01
2018-04-17T01:20:36.403Z,7.09
2018-04-17T01:21:40.616Z,7.08
2018-04-17T01:22:45.916Z,7.09
2018-04-17T01:23:51.183Z,7.11
2018-04-17T01:24:55.936Z,7.08
2018-04-17T01:26:00.692Z,7.00
2018-04-17T01:27:05.850Z,6.93
2018-04-17T01:28:11.110Z,6.87
2018-04-17T01:29:15.856Z,6.90
2018-04-17T01:30:21.737Z,6.90
2018-04-17T01:31:27.111Z,6.96
2018-04-17T01:32:32.273Z,7.03
2018-04-17T01:33:38.023Z,6.97
2018-04-17T01:34:42.839Z,6.89
2018-04-17T01:35:50.535Z,6.86
2018-04-17T01:36:56.158Z,6.84
2018-04-17T01:38:00.372Z,6.87
2018-04-17T01:39:04.798Z,6.93
2018-04-17T01:40:09.576Z,7.08
2018-04-17T01:41:15.031Z,7.19
2018-04-17T01:42:19.836Z,7.17
2018-04-17T01:43:25.026Z,7.18
2018-04-17T01:44:29.622Z,7.13
2018-04-17T01:45:35.532Z,7.12
2018-04-17T01:46:41.183Z,7.08
2018-04-17T01:47:46.707Z,7.09
2018-04-17T01:48:51.442Z,7.09
2018-04-17T01:49:56.857Z,6.96
2018-04-17T01:51:01.710Z,6.84
2018-04-17T01:52:06.687Z,6.76
2018-04-17T01:53:13.236Z,6.68
2018-04-17T01:54:26.397Z,6.62
2018-04-17T01:55:31.726Z,6.57
2018-04-17T01:56:37.105Z,6.55
2018-04-17T01:57:42.484Z,6.55
2018-04-17T01:58:48.466Z,6.62
2018-04-17T01:59:57.104Z,6.64
2018-04-17T02:01:02.981Z,6.76
2018-04-17T02:02:08.087Z,6.96
2018-04-17T02:03:13.651Z,7.16
2018-04-17T02:04:19.220Z,7.34
2018-04-17T02:05:24.309Z,7.45
2018-04-17T02:06:29.820Z,7.48
2018-04-17T02:07:34.476Z,7.48
2018-04-17T02:08:38.952Z,7.38
2018-04-17T02:09:44.432Z,7.16
2018-04-17T02:10:49.852Z,7.03
2018-04-17T02:11:54.608Z,6.90
2018-04-17T02:12:59.405Z,6.77
2018-04-17T02:14:04.463Z,6.66
2018-04-17T02:15:09.569Z,6.58
2018-04-17T02:16:15.671Z,6.52
2018-04-17T02:17:20.395Z,6.47
2018-04-17T02:18:26.399Z,6.45
2018-04-17T02:19:30.997Z,6.47
2018-04-17T02:20:36.673Z,6.50
2018-04-17T02:21:41.651Z,6.52
2018-04-17T02:22:54.152Z,6.57
2018-04-17T02:23:59.142Z,6.61
2018-04-17T02:25:04.328Z,6.62
2018-04-17T02:26:08.437Z,6.60
2018-04-17T02:27:13.040Z,6.55
2018-04-17T02:28:17.889Z,6.51
2018-04-17T02:29:22.650Z,6.46
2018-04-17T02:30:27.285Z,6.42
2018-04-17T02:31:34.281Z,6.40
2018-04-17T02:32:38.754Z,6.38
2018-04-17T02:33:43.567Z,6.34
2018-04-17T02:34:48.521Z,6.34
2018-04-17T02:35:53.456Z,6.43
2018-04-17T02:36:58.208Z,6.62
2018-04-17T02:38:03.305Z,6.77
2018-04-17T02:39:07.486Z,6.89
2018-04-17T02:40:12.282Z,6.97
2018-04-17T02:41:16.372Z,7.05
2018-04-17T02:42:22.498Z,7.06
2018-04-17T02:43:27.240Z,6.99
2018-04-17T02:44:32.365Z,6.93
2018-04-17T02:45:37.929Z,6.92
2018-04-17T02:46:42.709Z,6.89
2018-04-17T02:47:47.381Z,6.88
2018-04-17T02:48:53.568Z,6.89
2018-04-17T02:49:59.390Z,6.82
2018-04-17T02:51:04.345Z,6.77
2018-04-17T02:52:09.547Z,6.71
2018-04-17T02:53:14.927Z,6.67
2018-04-17T02:54:19.762Z,6.64
2018-04-17T02:56:39.909Z,6.71
2018-04-17T02:57:45.000Z,6.78
2018-04-17T02:58:50.601Z,6.77
2018-04-17T02:59:54.740Z,6.82
2018-04-17T03:00:59.770Z,6.86
2018-04-17T03:02:07.442Z,6.98
2018-04-17T03:03:12.151Z,7.18
2018-04-17T03:04:17.243Z,7.25
2018-04-17T03:05:22.012Z,7.29
2018-04-17T03:06:26.973Z,7.32
2018-04-17T03:07:32.438Z,7.31
2018-04-17T03:08:37.114Z,7.28
2018-04-17T03:09:41.588Z,7.35
2018-04-17T03:10:46.682Z,7.48
2018-04-17T03:11:50.791Z,7.56
2018-04-17T03:12:55.545Z,7.59
2018-04-17T03:14:03.095Z,7.54
2018-04-17T03:15:08.117Z,7.48
2018-04-17T03:16:12.506Z,7.46
2018-04-17T03:17:17.561Z,7.51
2018-04-17T03:18:23.179Z,7.53
2018-04-17T03:19:27.432Z,7.49
2018-04-17T03:20:31.519Z,7.42
2018-04-17T03:21:35.967Z,7.43
2018-04-17T03:22:40.385Z,7.42
2018-04-17T03:23:45.552Z,7.36
2018-04-17T03:24:50.387Z,7.30
2018-04-17T03:25:56.710Z,7.19
2018-04-17T03:27:00.921Z,7.20
2018-04-17T03:28:05.667Z,7.18
2018-04-17T03:29:10.849Z,7.14
2018-04-17T03:30:16.775Z,7.09
2018-04-17T03:31:23.224Z,7.05
2018-04-17T03:32:31.669Z,6.97
2018-04-17T03:33:36.412Z,6.97
2018-04-17T03:34:45.867Z,6.90
2018-04-17T03:35:53.151Z,6.82
2018-04-17T03:37:01.166Z,6.76
2018-04-17T03:38:06.536Z,6.76
2018-04-17T03:39:11.129Z,6.74
2018-04-17T03:40:19.430Z,6.69
2018-04-17T03:41:24.144Z,6.65
2018-04-17T03:42:28.953Z,6.62
2018-04-17T03:43:35.523Z,6.63
2018-04-17T03:44:40.388Z,6.67
2018-04-17T03:45:45.901Z,6.66
2018-04-17T03:46:51.288Z,6.68
2018-04-17T03:47:56.669Z,6.76
2018-04-17T03:49:01.198Z,6.71
2018-04-17T03:50:06.916Z,6.66
2018-04-17T03:51:12.015Z,6.61
2018-04-17T03:52:16.863Z,6.58
2018-04-17T03:53:25.508Z,6.57
2018-04-17T03:54:29.809Z,6.63
2018-04-17T03:55:36.559Z,6.80
2018-04-17T03:56:41.887Z,6.96
2018-04-17T03:57:46.606Z,6.96
2018-04-17T03:58:58.738Z,6.92
2018-04-17T04:00:05.841Z,6.81
2018-04-17T04:01:11.487Z,6.75
2018-04-17T04:02:16.801Z,6.71
2018-04-17T04:03:26.147Z,6.68
2018-04-17T04:04:31.552Z,6.66
2018-04-17T04:05:37.047Z,6.67
2018-04-17T04:06:42.437Z,6.66
2018-04-17T04:07:47.839Z,6.73
2018-04-17T04:08:57.115Z,6.78
2018-04-17T04:10:02.424Z,6.82
2018-04-17T04:11:07.249Z,6.84
2018-04-17T04:12:12.721Z,6.82
2018-04-17T04:13:16.923Z,6.85
2018-04-17T04:14:26.204Z,6.81
2018-04-17T04:15:30.624Z,6.77
2018-04-17T04:16:45.163Z,6.74
2018-04-17T04:18:00.067Z,6.85
2018-04-17T04:19:15.253Z,7.04
2018-04-17T04:20:31.466Z,7.12
2018-04-17T04:22:46.376Z,7.12
2018-04-17T04:25:10.287Z,7.26
2018-04-17T04:26:25.153Z,7.31
2018-04-17T04:27:29.950Z,7.28
2018-04-17T04:28:37.833Z,7.20
2018-04-17T04:29:43.383Z,7.16
2018-04-17T04:30:48.497Z,7.17
2018-04-17T04:31:54.050Z,7.14
2018-04-17T04:32:59.419Z,7.12
2018-04-17T04:34:05.232Z,7.13
2018-04-17T04:35:10.707Z,7.16
2018-04-17T04:36:14.868Z,7.25
2018-04-17T04:37:20.267Z,7.33
2018-04-17T04:38:27.103Z,7.38
2018-04-17T04:39:32.314Z,7.35
2018-04-17T04:40:38.311Z,7.32
2018-04-17T04:41:43.520Z,7.34
2018-04-17T04:42:48.235Z,7.28
2018-04-17T04:43:53.486Z,7.31
2018-04-17T04:44:59.125Z,7.39
2018-04-17T04:46:04.260Z,7.38
2018-04-17T04:47:08.962Z,7.40
2018-04-17T04:48:13.723Z,7.45
2018-04-17T04:49:18.455Z,7.37
2018-04-17T04:50:23.890Z,7.32
2018-04-17T04:51:28.713Z,7.22
2018-04-17T04:52:33.704Z,7.19
2018-04-17T04:53:39.507Z,7.30
2018-04-17T04:54:44.901Z,7.35
2018-04-17T04:55:52.657Z,7.43
2018-04-17T04:57:05.981Z,7.36
2018-04-17T04:58:11.366Z,7.29
2018-04-17T04:59:16.866Z,7.21
2018-04-17T05:00:21.491Z,7.16
2018-04-17T05:01:28.967Z,7.12
2018-04-17T05:02:33.106Z,7.10
2018-04-17T05:03:37.631Z,7.09
2018-04-17T05:04:43.180Z,7.10
2018-04-17T05:05:47.923Z,7.10
2018-04-17T05:06:53.313Z,7.12
2018-04-17T05:07:57.707Z,7.18
2018-04-17T05:09:01.875Z,7.22
2018-04-17T05:10:06.996Z,7.32
2018-04-17T05:11:12.915Z,7.33
2018-04-17T05:12:19.709Z,7.39
2018-04-17T05:13:26.454Z,7.43
2018-04-17T05:14:31.224Z,7.54
2018-04-17T05:15:37.416Z,7.61
2018-04-17T05:16:42.565Z,7.66
2018-04-17T05:17:47.401Z,7.71
2018-04-17T05:18:52.424Z,7.75
2018-04-17T05:19:58.850Z,7.80
2018-04-17T05:21:03.590Z,7.86
2018-04-17T05:22:08.374Z,7.90
2018-04-17T05:23:13.000Z,7.97
2018-04-17T05:24:17.848Z,8.08
2018-04-17T05:25:22.868Z,8.15
2018-04-17T05:26:27.616Z,8.28
2018-04-17T05:27:32.135Z,8.46
2018-04-17T05:28:37.540Z,8.80
2018-04-17T05:29:43.681Z,8.99
2018-04-17T05:30:48.639Z,9.01
2018-04-17T05:31:53.412Z,9.03
2018-04-17T05:32:59.394Z,9.15
2018-04-17T05:34:05.013Z,9.17
2018-04-17T05:35:10.659Z,9.26
2018-04-17T05:36:15.554Z,9.40
2018-04-17T05:37:20.316Z,9.45
2018-04-17T05:38:25.117Z,9.63
2018-04-17T05:39:31.487Z,9.77
2018-04-17T05:40:37.244Z,9.84
2018-04-17T05:41:42.191Z,9.83
2018-04-17T05:42:47.854Z,9.76
2018-04-17T05:43:52.232Z,9.74
2018-04-17T05:44:57.036Z,9.80
2018-04-17T05:46:03.143Z,10.18
2018-04-17T05:47:08.453Z,10.52
2018-04-17T05:48:15.458Z,10.56
2018-04-17T05:49:20.641Z,10.43
2018-04-17T05:50:27.140Z,10.55
2018-04-17T05:51:33.711Z,10.49
2018-04-17T05:52:39.707Z,10.40
2018-04-17T05:53:45.545Z,10.23
2018-04-17T05:54:49.674Z,10.51
2018-04-17T05:55:54.750Z,10.88
2018-04-17T05:57:00.411Z,10.90
2018-04-17T05:58:05.955Z,11.01
2018-04-17T05:59:10.464Z,10.73
2018-04-17T06:00:18.171Z,10.71
2018-04-17T06:01:22.990Z,11.21
2018-04-17T06:02:28.762Z,11.41
2018-04-17T06:03:35.397Z,11.54
2018-04-17T06:04:40.309Z,11.42
2018-04-17T06:05:47.587Z,11.26
2018-04-17T06:06:53.503Z,11.09
2018-04-17T06:08:05.683Z,11.31
2018-04-17T06:09:09.828Z,11.38
2018-04-17T06:10:15.381Z,11.55
2018-04-17T06:11:20.105Z,11.33
2018-04-17T06:12:25.491Z,11.19
2018-04-17T06:13:30.274Z,11.38
2018-04-17T06:14:35.398Z,11.62
2018-04-17T06:15:40.274Z,11.85
2018-04-17T06:16:46.534Z,11.82
2018-04-17T06:17:51.162Z,11.91
2018-04-17T06:18:58.577Z,12.08
2018-04-17T06:20:03.494Z,11.99
2018-04-17T06:21:09.185Z,12.25
2018-04-17T06:22:15.886Z,12.40
2018-04-17T06:23:20.904Z,12.82
2018-04-17T06:24:26.315Z,13.21
2018-04-17T06:25:31.310Z,13.01
2018-04-17T06:26:37.886Z,13.37
2018-04-17T06:27:43.862Z,13.34
2018-04-17T06:28:48.748Z,12.95
2018-04-17T06:29:54.257Z,12.79
2018-04-17T06:31:00.750Z,13.05
2018-04-17T06:32:06.410Z,13.31
2018-04-17T06:33:11.813Z,12.85
2018-04-17T06:34:16.026Z,12.91
2018-04-17T06:35:21.072Z,13.24
2018-04-17T06:36:26.872Z,13.02
2018-04-17T06:37:33.117Z,12.86
2018-04-17T06:38:42.129Z,12.77
2018-04-17T06:39:47.452Z,12.89
2018-04-17T06:40:53.174Z,13.04
2018-04-17T06:41:59.664Z,13.02
2018-04-17T06:43:03.886Z,13.37
2018-04-17T06:44:10.088Z,13.37
2018-04-17T06:45:16.558Z,13.10
2018-04-17T06:46:21.002Z,12.95
2018-04-17T06:47:26.385Z,13.21
2018-04-17T06:48:31.975Z,13.36
2018-04-17T06:49:36.772Z,13.45
2018-04-17T06:50:43.198Z,13.58
2018-04-17T06:51:47.766Z,13.97
2018-04-17T06:52:53.240Z,14.05
2018-04-17T06:53:57.378Z,13.99
2018-04-17T06:55:02.155Z,14.04
2018-04-17T06:56:07.058Z,13.95
2018-04-17T06:57:17.694Z,13.87
2018-04-17T06:58:23.982Z,13.79
2018-04-17T06:59:31.505Z,14.22
2018-04-17T07:00:37.624Z,14.46
2018-04-17T07:01:50.954Z,14.35
2018-04-17T07:02:55.835Z,14.75
2018-04-17T07:03:59.960Z,14.95
2018-04-17T07:05:04.912Z,14.77
2018-04-17T07:06:09.992Z,14.44
2018-04-17T07:07:14.205Z,14.27
2018-04-17T07:08:18.965Z,14.32
2018-04-17T07:09:24.287Z,14.64
2018-04-17T07:10:30.659Z,14.68
2018-04-17T07:11:36.315Z,14.76
2018-04-17T07:12:42.031Z,14.27
2018-04-17T07:13:47.652Z,14.13
2018-04-17T07:14:52.487Z,14.45
2018-04-17T07:15:58.657Z,14.47
2018-04-17T07:17:04.093Z,14.46
2018-04-17T07:18:08.986Z,14.74
2018-04-17T07:19:13.715Z,14.84
2018-04-17T07:20:19.450Z,14.91
2018-04-17T07:21:24.429Z,15.01
2018-04-17T07:22:28.567Z,15.15
2018-04-17T07:23:32.855Z,15.33
2018-04-17T07:24:38.249Z,15.52
2018-04-17T07:25:43.161Z,15.37
2018-04-17T07:26:48.732Z,15.64
2018-04-17T07:27:52.864Z,15.93
2018-04-17T07:28:58.602Z,16.04
2018-04-17T07:30:06.413Z,15.91
2018-04-17T07:31:12.239Z,15.67
2018-04-17T07:32:16.992Z,15.47
2018-04-17T07:33:23.974Z,15.61
2018-04-17T07:34:30.113Z,15.77
2018-04-17T07:35:34.993Z,15.82
2018-04-17T07:36:40.552Z,15.61
2018-04-17T07:37:46.162Z,15.68
2018-04-17T07:38:54.495Z,15.67
2018-04-17T07:40:00.120Z,15.78
2018-04-17T07:41:05.512Z,15.92
2018-04-17T07:42:10.875Z,16.06
2018-04-17T07:43:16.551Z,16.06
2018-04-17T07:44:21.697Z,16.26
2018-04-17T07:45:27.784Z,15.90
2018-04-17T07:46:33.103Z,15.82
2018-04-17T07:47:39.017Z,16.02
2018-04-17T07:48:49.058Z,16.17
2018-04-17T07:49:53.922Z,16.16
2018-04-17T07:50:59.128Z,15.89
2018-04-17T07:52:07.052Z,15.73
2018-04-17T07:53:11.167Z,16.16
2018-04-17T07:54:16.625Z,15.99
2018-04-17T07:55:22.170Z,15.80
2018-04-17T07:56:27.577Z,16.11
2018-04-17T07:57:39.650Z,16.45
2018-04-17T07:58:44.432Z,16.25
2018-04-17T07:59:49.682Z,16.29
2018-04-17T08:00:55.125Z,16.36
2018-04-17T08:02:01.409Z,16.40
2018-04-17T08:03:07.476Z,16.53
2018-04-17T08:04:12.075Z,16.49
2018-04-17T08:05:20.625Z,16.49
2018-04-17T08:06:28.044Z,16.63
2018-04-17T08:07:32.240Z,16.85
2018-04-17T08:08:36.984Z,17.05
2018-04-17T08:09:42.809Z,16.66
2018-04-17T08:10:47.204Z,16.77
2018-04-17T08:11:51.682Z,16.94
2018-04-17T08:12:57.757Z,16.96
2018-04-17T08:14:04.015Z,17.41
2018-04-17T08:15:09.354Z,17.95
2018-04-17T08:16:14.809Z,18.34
2018-04-17T08:17:20.325Z,17.98
2018-04-17T08:18:27.998Z,17.43
2018-04-17T08:19:32.910Z,17.33
2018-04-17T08:20:38.418Z,17.65
2018-04-17T08:21:43.347Z,17.49
2018-04-17T08:22:49.128Z,17.70
2018-04-17T08:23:53.948Z,17.55
2018-04-17T08:24:58.076Z,17.30
2018-04-17T08:26:10.095Z,17.02
2018-04-17T08:27:15.370Z,16.74
2018-04-17T08:28:20.507Z,16.82
2018-04-17T08:29:25.981Z,17.00
2018-04-17T08:30:31.676Z,16.99
2018-04-17T08:31:37.633Z,17.00
2018-04-17T08:32:43.345Z,17.03
2018-04-17T08:33:49.996Z,17.14
2018-04-17T08:34:54.847Z,16.90
2018-04-17T08:35:59.036Z,16.86
2018-04-17T08:37:04.760Z,17.28
2018-04-17T08:38:11.846Z,17.84
2018-04-17T08:39:27.389Z,17.87
2018-04-17T08:40:33.193Z,17.96
2018-04-17T08:41:37.636Z,18.19
2018-04-17T08:42:42.834Z,18.32
2018-04-17T08:43:47.009Z,18.40
2018-04-17T08:44:51.846Z,18.34
2018-04-17T08:45:57.607Z,18.49
2018-04-17T08:47:02.388Z,18.18
2018-04-17T08:48:08.199Z,18.00
2018-04-17T08:49:15.541Z,18.36
2018-04-17T08:50:21.054Z,18.68
2018-04-17T08:51:26.297Z,18.67
2018-04-17T08:52:31.753Z,18.60
2018-04-17T08:53:36.646Z,18.39
2018-04-17T08:54:41.530Z,18.34
2018-04-17T08:55:47.036Z,18.26
2018-04-17T08:56:52.641Z,18.52
2018-04-17T08:57:58.545Z,18.15
2018-04-17T08:59:05.458Z,17.95
2018-04-17T09:00:10.738Z,17.80
2018-04-17T09:01:16.231Z,18.07
2018-04-17T09:02:21.705Z,17.89
2018-04-17T09:03:26.615Z,18.00
2018-04-17T09:04:31.470Z,18.03
2018-04-17T09:05:36.977Z,17.96
2018-04-17T09:06:41.806Z,18.17
2018-04-17T09:07:47.320Z,18.16
2018-04-17T09:08:52.788Z,18.19
2018-04-17T09:09:57.011Z,18.12
2018-04-17T09:11:02.064Z,18.27
2018-04-17T09:12:19.988Z,18.16
2018-04-17T09:13:26.148Z,18.36
2018-04-17T09:14:30.274Z,18.72
2018-04-17T09:15:36.885Z,18.86
2018-04-17T09:16:41.707Z,18.72
2018-04-17T09:17:47.614Z,18.96
2018-04-17T09:18:53.275Z,19.08
2018-04-17T09:19:58.722Z,19.11
2018-04-17T09:21:04.140Z,18.90
2018-04-17T09:22:09.776Z,18.89
2018-04-17T09:23:15.412Z,18.56
2018-04-17T09:24:20.526Z,18.10
2018-04-17T09:25:26.354Z,17.82
2018-04-17T09:26:31.545Z,18.22
2018-04-17T09:27:36.373Z,18.71
2018-04-17T09:28:41.569Z,18.74
2018-04-17T09:29:47.330Z,18.81
2018-04-17T09:30:53.686Z,18.65
2018-04-17T09:31:58.497Z,18.85
2018-04-17T09:33:03.392Z,19.00
2018-04-17T09:34:08.152Z,19.20
2018-04-17T09:35:12.911Z,19.17
2018-04-17T09:36:18.457Z,19.45
2018-04-17T09:37:23.305Z,19.79
2018-04-17T09:38:31.964Z,19.88
2018-04-17T09:39:36.106Z,19.90
2018-04-17T09:40:41.369Z,19.93
2018-04-17T09:41:45.517Z,20.04
2018-04-17T09:42:50.987Z,20.37
2018-04-17T09:44:00.045Z,20.83
2018-04-17T09:45:16.634Z,20.45
2018-04-17T09:46:22.742Z,19.47
2018-04-17T09:47:27.952Z,19.28
2018-04-17T09:48:32.807Z,19.51
2018-04-17T09:49:46.641Z,19.36
2018-04-17T09:50:51.828Z,19.22
2018-04-17T09:51:58.916Z,18.98
2018-04-17T09:53:04.398Z,19.32
2018-04-17T09:54:09.208Z,19.93
2018-04-17T09:55:14.038Z,20.00
2018-04-17T09:56:19.140Z,19.67
2018-04-17T09:57:23.274Z,19.23
2018-04-17T09:58:31.319Z,19.01
2018-04-17T09:59:35.661Z,19.03
2018-04-17T10:00:44.639Z,19.01
2018-04-17T10:01:50.012Z,19.29
2018-04-17T10:02:55.164Z,19.61
2018-04-17T10:03:59.955Z,19.69
2018-04-17T10:05:06.460Z,20.09
2018-04-17T10:06:10.803Z,20.56
2018-04-17T10:07:14.960Z,20.66
2018-04-17T10:08:19.810Z,20.77
2018-04-17T10:09:24.614Z,21.06
2018-04-17T10:10:29.700Z,20.61
2018-04-17T10:11:34.570Z,19.99
2018-04-17T10:12:40.129Z,19.94
2018-04-17T10:13:45.438Z,19.65
2018-04-17T10:14:51.840Z,19.16
2018-04-17T10:15:57.778Z,19.53
2018-04-17T10:17:02.079Z,19.75
2018-04-17T10:18:08.414Z,20.00
2018-04-17T10:19:15.152Z,20.40
2018-04-17T10:20:23.781Z,20.67
2018-04-17T10:21:30.659Z,20.78
2018-04-17T10:22:34.876Z,21.07
2018-04-17T10:23:39.202Z,21.44
2018-04-17T10:24:45.284Z,21.83
2018-04-17T10:25:51.383Z,21.68
2018-04-17T10:26:56.560Z,21.41
2018-04-17T10:28:01.899Z,20.88
2018-04-17T10:29:07.235Z,20.64
2018-04-17T10:30:14.733Z,20.35
2018-04-17T10:31:20.265Z,20.32
2018-04-17T10:32:26.093Z,20.28
2018-04-17T10:33:31.891Z,20.73
2018-04-17T10:34:36.734Z,20.94
2018-04-17T10:35:42.247Z,20.54
2018-04-17T10:36:47.078Z,20.08
2018-04-17T10:37:53.258Z,20.28
2018-04-17T10:38:58.462Z,20.59
2018-04-17T10:40:02.954Z,20.77
2018-04-17T10:41:14.098Z,21.05
2018-04-17T10:42:24.082Z,21.18
2018-04-17T10:43:29.020Z,21.19
2018-04-17T10:44:41.356Z,21.36
2018-04-17T10:45:48.502Z,21.20
2018-04-17T10:46:54.078Z,20.76
2018-04-17T10:48:01.556Z,20.93
2018-04-17T10:49:07.158Z,21.37
2018-04-17T10:50:13.431Z,21.52
2018-04-17T10:51:18.388Z,21.03
2018-04-17T10:52:23.508Z,21.02
2018-04-17T10:53:28.383Z,20.98
2018-04-17T10:54:33.987Z,21.19
2018-04-17T10:55:39.655Z,21.06
2018-04-17T10:56:44.627Z,20.72
2018-04-17T10:57:49.502Z,20.99
2018-04-17T10:58:55.252Z,20.98
2018-04-17T11:00:01.273Z,21.36
2018-04-17T11:01:06.768Z,21.37
2018-04-17T11:02:12.220Z,21.55
2018-04-17T11:03:17.058Z,22.10
2018-04-17T11:04:22.082Z,22.96
2018-04-17T11:05:27.527Z,23.67
2018-04-17T11:06:33.564Z,23.16
2018-04-17T11:07:38.802Z,22.80
2018-04-17T11:08:43.999Z,22.31
2018-04-17T11:09:49.689Z,22.23
2018-04-17T11:10:54.551Z,22.09
2018-04-17T11:11:59.360Z,22.67
2018-04-17T11:13:04.687Z,23.29
2018-04-17T11:14:10.411Z,23.49
2018-04-17T11:15:18.435Z,23.40
2018-04-17T11:16:23.547Z,23.50
2018-04-17T11:17:28.346Z,24.15
2018-04-17T11:18:33.478Z,24.59
2018-04-17T11:19:39.018Z,24.33
2018-04-17T11:20:43.164Z,23.54
2018-04-17T11:21:48.044Z,22.68
2018-04-17T11:22:53.703Z,22.44
2018-04-17T11:23:58.842Z,22.83
2018-04-17T11:25:11.797Z,23.37
2018-04-17T11:26:16.748Z,23.43
2018-04-17T11:27:22.290Z,23.25
2018-04-17T11:28:27.144Z,23.74
2018-04-17T11:29:32.034Z,23.89
2018-04-17T11:30:37.866Z,23.84
2018-04-17T11:31:43.763Z,23.49
2018-04-17T11:32:48.078Z,23.74
2018-04-17T11:33:52.972Z,24.05
2018-04-17T11:34:59.597Z,24.48
2018-04-17T11:36:05.692Z,24.59
2018-04-17T11:37:11.653Z,24.44
2018-04-17T11:38:16.840Z,23.78
2018-04-17T11:39:23.595Z,24.05
2018-04-17T11:40:28.710Z,24.35
2018-04-17T11:41:33.356Z,23.93
2018-04-17T11:42:37.456Z,23.78
2018-04-17T11:43:42.840Z,24.18
2018-04-17T11:44:47.904Z,23.67
2018-04-17T11:45:52.793Z,23.93
2018-04-17T11:46:58.679Z,23.95
2018-04-17T11:48:04.206Z,24.35
2018-04-17T11:49:09.769Z,24.54
2018-04-17T11:50:14.545Z,24.92
2018-04-17T11:51:20.108Z,25.10
2018-04-17T11:52:25.257Z,24.34
2018-04-17T11:53:30.074Z,24.31
2018-04-17T11:54:35.229Z,24.33
2018-04-17T11:55:40.739Z,24.03
2018-04-17T11:56:47.208Z,24.14
2018-04-17T11:57:52.928Z,24.26
2018-04-17T11:58:59.527Z,24.80
2018-04-17T12:00:07.651Z,24.43
2018-04-17T12:01:14.600Z,24.44
2018-04-17T12:02:20.257Z,24.97
2018-04-17T12:03:25.439Z,25.34
2018-04-17T12:04:31.095Z,25.64
2018-04-17T12:05:35.428Z,26.34
2018-04-17T12:06:40.332Z,26.02
2018-04-17T12:07:46.235Z,26.93
2018-04-17T12:08:50.854Z,28.32
2018-04-17T12:09:57.586Z,27.71
2018-04-17T12:11:05.629Z,26.40
2018-04-17T12:12:10.475Z,24.88
2018-04-17T12:13:15.424Z,24.43
2018-04-17T12:14:20.919Z,24.32
2018-04-17T12:15:26.270Z,24.81
2018-04-17T12:16:31.953Z,25.37
2018-04-17T12:17:37.260Z,25.83
2018-04-17T12:18:44.125Z,26.42
2018-04-17T12:19:52.133Z,26.42
2018-04-17T12:20:57.817Z,25.57
2018-04-17T12:22:02.003Z,25.13
2018-04-17T12:23:07.405Z,25.37
2018-04-17T12:24:13.954Z,25.04
2018-04-17T12:25:18.132Z,24.91
2018-04-17T12:26:23.265Z,25.19
2018-04-17T12:27:28.947Z,24.99
2018-04-17T12:28:34.019Z,25.31
2018-04-17T12:29:39.551Z,25.52
2018-04-17T12:30:46.311Z,25.47
2018-04-17T12:31:51.979Z,25.57
2018-04-17T12:32:58.926Z,26.33
2018-04-17T12:34:03.904Z,27.41
2018-04-17T12:35:10.330Z,27.21
2018-04-17T12:36:15.909Z,26.54
2018-04-17T12:37:21.365Z,26.43
2018-04-17T12:38:26.393Z,26.42
2018-04-17T12:39:32.018Z,26.33
2018-04-17T12:40:37.506Z,26.28
2018-04-17T12:41:42.342Z,26.48
2018-04-17T12:42:48.243Z,26.73
2018-04-17T12:43:54.207Z,26.87
2018-04-17T12:45:00.780Z,25.89
2018-04-17T12:47:18.570Z,26.29
2018-04-17T12:48:24.666Z,27.03
2018-04-17T12:49:29.140Z,27.39
2018-04-17T12:50:34.660Z,27.25
2018-04-17T12:51:38.933Z,27.04
2018-04-17T12:52:44.796Z,26.97
2018-04-17T12:53:49.325Z,26.59
2018-04-17T12:54:55.807Z,25.92
2018-04-17T12:55:59.993Z,25.47
2018-04-17T12:57:04.785Z,25.68
2018-04-17T12:58:10.198Z,26.44
2018-04-17T12:59:15.149Z,27.44
2018-04-17T13:00:20.318Z,28.17
2018-04-17T13:01:25.472Z,28.09
2018-04-17T13:02:29.723Z,28.23
2018-04-17T13:03:34.629Z,27.65
2018-04-17T13:04:39.977Z,27.90
2018-04-17T13:05:44.930Z,28.22
2018-04-17T13:06:49.853Z,27.23
2018-04-17T13:07:55.807Z,27.20
2018-04-17T13:09:01.296Z,27.06
2018-04-17T13:10:06.201Z,27.53
2018-04-17T13:11:12.805Z,28.28
2018-04-17T13:12:18.031Z,28.74
2018-04-17T13:13:23.083Z,27.65
2018-04-17T13:14:27.880Z,26.71
2018-04-17T13:15:33.194Z,26.52
2018-04-17T13:16:39.585Z,26.55
2018-04-17T13:17:44.242Z,25.90
2018-04-17T13:18:49.334Z,25.81
2018-04-17T13:19:54.358Z,25.35
2018-04-17T13:20:59.776Z,25.55
2018-04-17T13:22:05.921Z,26.23
2018-04-17T13:23:11.502Z,26.79
2018-04-17T13:24:22.065Z,27.04
2018-04-17T13:25:26.843Z,27.66
2018-04-17T13:26:31.041Z,28.27
2018-04-17T13:27:36.119Z,28.22
2018-04-17T13:28:40.925Z,27.80
2018-04-17T13:29:46.552Z,27.46
2018-04-17T13:30:53.263Z,28.15
2018-04-17T13:31:59.155Z,28.74
2018-04-17T13:33:04.256Z,28.87
2018-04-17T13:34:09.343Z,30.02
2018-04-17T13:35:15.046Z,30.94
2018-04-17T13:36:19.987Z,30.55
2018-04-17T13:37:25.261Z,30.46
2018-04-17T13:38:30.045Z,30.20
2018-04-17T13:39:34.953Z,29.47
2018-04-17T13:40:41.489Z,29.28
2018-04-17T13:41:46.464Z,28.53
2018-04-17T13:42:52.182Z,28.01
2018-04-17T13:43:58.167Z,27.85
2018-04-17T13:45:04.624Z,27.82
2018-04-17T13:46:10.671Z,27.96
2018-04-17T13:47:15.780Z,27.62
2018-04-17T13:48:21.030Z,27.48
2018-04-17T13:49:25.219Z,27.14
2018-04-17T13:50:30.160Z,27.45
2018-04-17T13:51:37.094Z,27.62
2018-04-17T13:52:42.667Z,26.68
2018-04-17T13:53:47.909Z,25.86
2018-04-17T13:54:52.325Z,26.06
2018-04-17T13:55:58.283Z,26.32
2018-04-17T13:57:03.693Z,26.63
2018-04-17T13:58:09.604Z,26.72
2018-04-17T13:59:15.095Z,27.16
2018-04-17T14:00:20.400Z,26.73
2018-04-17T14:01:25.711Z,26.88
2018-04-17T14:02:30.641Z,27.27
2018-04-17T14:03:36.121Z,27.95
2018-04-17T14:04:41.176Z,28.86
2018-04-17T14:05:45.905Z,29.77
2018-04-17T14:06:51.725Z,30.21
2018-04-17T14:07:56.492Z,30.48
2018-04-17T14:09:01.349Z,29.80
2018-04-17T14:10:07.571Z,29.00
2018-04-17T14:11:12.591Z,28.97
2018-04-17T14:12:18.298Z,28.82
2018-04-17T14:13:24.081Z,27.90
2018-04-17T14:14:29.023Z,27.20
2018-04-17T14:15:35.787Z,27.68
2018-04-17T14:16:41.327Z,27.78
2018-04-17T14:17:46.198Z,27.83
2018-04-17T14:18:51.894Z,27.84
2018-04-17T14:19:57.466Z,28.04
2018-04-17T14:21:03.357Z,29.09
2018-04-17T14:22:08.859Z,29.66